createdAt,value
2022-10-01T00:01:28.454Z,92.67
2022-10-01T00:03:57.279Z,92.56
2022-10-01T00:06:25.233Z,92.54
2022-10-01T00:08:53.402Z,92.47
2022-10-01T00:11:23.415Z,92.41
2022-10-01T00:13:51.951Z,92.53
2022-10-01T00:16:24.255Z,92.46
2022-10-01T00:18:55.704Z,92.54
2022-10-01T00:21:25.450Z,92.45
2022-10-01T00:23:57.923Z,92.70
2022-10-01T00:26:28.106Z,92.56
2022-10-01T00:28:57.810Z,92.70
2022-10-01T00:31:26.004Z,92.76
2022-10-01T00:33:55.076Z,92.53
2022-10-01T00:36:23.009Z,92.54
2022-10-01T00:38:51.278Z,92.64
2022-10-01T00:41:19.706Z,92.67
2022-10-01T00:43:50.374Z,92.63
2022-10-01T00:46:25.384Z,92.53
2022-10-01T00:48:59.450Z,92.50
2022-10-01T00:51:30.368Z,92.59
2022-10-01T00:54:03.292Z,92.56
2022-10-01T00:56:32.114Z,92.55
2022-10-01T00:59:00.380Z,92.66
2022-10-01T01:01:28.850Z,92.75
2022-10-01T01:03:57.986Z,92.66
2022-10-01T01:06:26.064Z,92.60
2022-10-01T01:08:55.282Z,92.75
2022-10-01T01:11:35.400Z,92.58
2022-10-01T01:14:15.297Z,92.58
2022-10-01T01:16:48.429Z,92.47
2022-10-01T01:19:16.399Z,92.63
2022-10-01T01:21:46.618Z,92.58
2022-10-01T01:24:33.593Z,92.68
2022-10-01T01:27:21.842Z,92.57
2022-10-01T01:29:49.787Z,92.66
2022-10-01T01:32:22.462Z,92.67
2022-10-01T01:34:52.071Z,92.55
2022-10-01T01:37:23.120Z,92.46
2022-10-01T01:39:52.918Z,92.51
2022-10-01T01:42:30.180Z,92.49
2022-10-01T01:45:00.111Z,92.45
2022-10-01T01:47:30.553Z,92.49
2022-10-01T01:50:00.697Z,92.66
2022-10-01T01:52:29.377Z,92.47
2022-10-01T01:54:58.138Z,92.45
2022-10-01T01:57:26.991Z,92.39
2022-10-01T01:59:55.691Z,92.55
2022-10-01T02:02:26.064Z,92.56
2022-10-01T02:05:00.815Z,92.53
2022-10-01T02:07:28.842Z,92.46
2022-10-01T02:09:59.824Z,92.51
2022-10-01T02:12:33.886Z,92.46
2022-10-01T02:15:01.935Z,92.51
2022-10-01T02:17:35.431Z,92.60
2022-10-01T02:20:20.870Z,92.54
2022-10-01T02:22:48.855Z,92.75
2022-10-01T02:25:19.237Z,92.62
2022-10-01T02:27:56.281Z,92.70
2022-10-01T02:30:25.045Z,92.62
2022-10-01T02:32:54.492Z,92.70
2022-10-01T02:35:23.794Z,92.77
2022-10-01T02:37:52.768Z,92.79
2022-10-01T02:40:26.402Z,92.72
2022-10-01T02:42:57.449Z,92.65
2022-10-01T02:45:26.468Z,92.76
2022-10-01T02:47:57.369Z,92.66
2022-10-01T02:50:29.054Z,92.90
2022-10-01T02:53:03.041Z,92.74
2022-10-01T02:55:34.814Z,92.65
2022-10-01T02:58:02.899Z,92.74
2022-10-01T03:00:30.911Z,92.81
2022-10-01T03:02:58.979Z,92.76
2022-10-01T03:05:27.229Z,92.87
2022-10-01T03:07:55.329Z,92.80
2022-10-01T03:10:23.297Z,92.79
2022-10-01T03:12:51.305Z,92.90
2022-10-01T03:15:20.152Z,92.87
2022-10-01T03:17:51.518Z,93.01
2022-10-01T03:20:19.766Z,92.84
2022-10-01T03:22:48.035Z,92.90
2022-10-01T03:25:16.221Z,92.84
2022-10-01T03:27:44.254Z,92.96
2022-10-01T03:30:12.608Z,92.78
2022-10-01T03:32:40.505Z,92.86
2022-10-01T03:35:08.826Z,93.04
2022-10-01T03:37:36.816Z,92.95
2022-10-01T03:40:05.356Z,92.91
2022-10-01T03:42:33.690Z,92.76
2022-10-01T03:45:01.685Z,92.90
2022-10-01T03:47:29.802Z,92.95
2022-10-01T03:49:57.947Z,92.84
2022-10-01T03:52:25.986Z,93.01
2022-10-01T03:54:53.888Z,92.89
2022-10-01T03:57:21.767Z,92.83
2022-10-01T03:59:49.805Z,92.83
2022-10-01T04:02:18.015Z,92.81
2022-10-01T04:04:46.135Z,92.86
2022-10-01T04:07:14.312Z,92.90
2022-10-01T04:09:42.578Z,92.82
2022-10-01T04:12:11.013Z,92.79
2022-10-01T04:14:39.042Z,92.88
2022-10-01T04:17:07.085Z,92.73
2022-10-01T04:19:35.205Z,92.67
2022-10-01T04:22:03.192Z,92.85
2022-10-01T04:24:31.643Z,92.78
2022-10-01T04:26:59.797Z,92.89
2022-10-01T04:29:27.718Z,92.98
2022-10-01T04:31:58.243Z,92.96
2022-10-01T04:34:46.376Z,93.14
2022-10-01T04:37:14.299Z,93.05
2022-10-01T04:39:42.312Z,93.11
2022-10-01T04:42:10.237Z,93.03
2022-10-01T04:44:38.195Z,93.03
2022-10-01T04:47:07.130Z,92.99
2022-10-01T04:49:35.201Z,93.01
2022-10-01T04:52:04.216Z,93.00
2022-10-01T04:54:32.340Z,93.08
2022-10-01T04:57:00.388Z,93.08
2022-10-01T04:59:28.481Z,93.02
2022-10-01T05:01:56.693Z,93.02
2022-10-01T05:04:24.846Z,93.02
2022-10-01T05:06:52.975Z,93.00
2022-10-01T05:09:21.032Z,93.06
2022-10-01T05:11:52.141Z,93.03
2022-10-01T05:14:23.133Z,93.10
2022-10-01T05:16:51.165Z,93.03
2022-10-01T05:19:19.218Z,93.17
2022-10-01T05:21:47.230Z,93.19
2022-10-01T05:24:16.163Z,93.18
2022-10-01T05:26:44.162Z,93.24
2022-10-01T05:29:15.052Z,93.29
2022-10-01T05:31:44.495Z,93.15
2022-10-01T05:34:12.847Z,93.30
2022-10-01T05:36:40.931Z,93.21
2022-10-01T05:39:08.903Z,93.36
2022-10-01T05:41:37.241Z,93.34
2022-10-01T05:44:06.186Z,93.37
2022-10-01T05:46:34.148Z,93.28
2022-10-01T05:49:02.240Z,93.39
2022-10-01T05:51:30.348Z,93.27
2022-10-01T05:54:02.205Z,93.27
2022-10-01T05:56:30.737Z,93.21
2022-10-01T05:58:59.622Z,93.17
2022-10-01T06:01:28.341Z,93.22
2022-10-01T06:03:56.724Z,93.11
2022-10-01T06:06:25.847Z,93.43
2022-10-01T06:08:53.855Z,93.44
2022-10-01T06:11:24.374Z,93.34
2022-10-01T06:13:52.756Z,93.35
2022-10-01T06:16:21.043Z,93.54
2022-10-01T06:18:49.729Z,93.58
2022-10-01T06:21:17.797Z,93.71
2022-10-01T06:23:46.849Z,93.58
2022-10-01T06:26:14.863Z,93.63
2022-10-01T06:28:48.618Z,93.57
2022-10-01T06:31:17.370Z,93.74
2022-10-01T06:33:46.225Z,93.64
2022-10-01T06:36:14.282Z,93.51
2022-10-01T06:38:43.100Z,93.68
2022-10-01T06:41:11.399Z,93.68
2022-10-01T06:43:39.341Z,93.87
2022-10-01T06:46:07.489Z,94.12
2022-10-01T06:48:36.675Z,94.12
2022-10-01T06:51:05.906Z,94.09
2022-10-01T06:53:33.938Z,93.75
2022-10-01T06:56:07.961Z,93.91
2022-10-01T06:58:37.481Z,93.90
2022-10-01T07:01:05.715Z,93.96
2022-10-01T07:03:34.432Z,93.99
2022-10-01T07:06:03.859Z,93.83
2022-10-01T07:08:33.402Z,93.85
2022-10-01T07:11:02.914Z,93.86
2022-10-01T07:13:31.202Z,93.96
2022-10-01T07:15:59.217Z,93.90
2022-10-01T07:18:27.263Z,93.89
2022-10-01T07:20:56.825Z,93.90
2022-10-01T07:23:24.788Z,94.20
2022-10-01T07:25:52.885Z,93.89
2022-10-01T07:28:24.172Z,93.88
2022-10-01T07:30:58.219Z,94.01
2022-10-01T07:33:26.736Z,93.93
2022-10-01T07:35:55.493Z,93.94
2022-10-01T07:38:23.474Z,94.17
2022-10-01T07:40:52.055Z,94.01
2022-10-01T07:43:20.423Z,93.98
2022-10-01T07:45:50.076Z,94.00
2022-10-01T07:48:19.355Z,94.05
2022-10-01T07:50:47.539Z,94.27
2022-10-01T07:53:16.466Z,94.15
2022-10-01T07:55:44.994Z,94.16
2022-10-01T07:58:13.459Z,93.98
2022-10-01T08:00:43.576Z,94.18
2022-10-01T08:03:14.574Z,94.06
2022-10-01T08:05:43.540Z,94.01
2022-10-01T08:08:11.947Z,94.13
2022-10-01T08:10:40.005Z,94.23
2022-10-01T08:13:17.779Z,94.10
2022-10-01T08:15:47.365Z,93.98
2022-10-01T08:18:15.878Z,93.94
2022-10-01T08:20:44.413Z,93.90
2022-10-01T08:23:14.320Z,93.84
2022-10-01T08:25:43.556Z,93.59
2022-10-01T08:28:12.153Z,93.94
2022-10-01T08:30:41.732Z,93.80
2022-10-01T08:33:11.082Z,93.64
2022-10-01T08:35:40.444Z,94.00
2022-10-01T08:38:08.581Z,93.86
2022-10-01T08:40:42.323Z,93.65
2022-10-01T08:43:25.834Z,93.88
2022-10-01T08:45:56.245Z,93.96
2022-10-01T08:48:31.297Z,93.98
2022-10-01T08:51:03.969Z,93.75
2022-10-01T08:53:50.221Z,93.77
2022-10-01T08:56:21.869Z,93.80
2022-10-01T08:58:53.630Z,93.61
2022-10-01T09:01:22.403Z,93.60
2022-10-01T09:03:50.991Z,93.92
2022-10-01T09:06:21.093Z,93.84
2022-10-01T09:08:54.997Z,93.91
2022-10-01T09:11:25.998Z,93.80
2022-10-01T09:13:57.852Z,93.84
2022-10-01T09:16:46.383Z,93.92
2022-10-01T09:19:31.755Z,93.77
2022-10-01T09:22:03.355Z,93.75
2022-10-01T09:24:44.724Z,93.65
2022-10-01T09:27:23.200Z,93.83
2022-10-01T09:29:53.622Z,93.70
2022-10-01T09:32:27.335Z,93.93
2022-10-01T09:34:57.212Z,93.66
2022-10-01T09:37:27.051Z,93.76
2022-10-01T09:39:55.057Z,93.65
2022-10-01T09:42:26.478Z,94.00
2022-10-01T09:44:54.734Z,93.78
2022-10-01T09:47:25.332Z,93.82
2022-10-01T09:49:53.392Z,93.69
2022-10-01T09:52:28.965Z,93.88
2022-10-01T09:55:00.406Z,93.96
2022-10-01T09:57:28.443Z,94.31
2022-10-01T10:00:02.265Z,94.19
2022-10-01T10:02:38.110Z,94.10
2022-10-01T10:05:08.822Z,94.51
2022-10-01T10:07:39.809Z,94.10
2022-10-01T10:10:17.041Z,94.11
2022-10-01T10:12:46.108Z,93.98
2022-10-01T10:15:19.172Z,93.83
2022-10-01T10:17:50.214Z,93.92
2022-10-01T10:20:28.750Z,93.88
2022-10-01T10:23:06.752Z,93.91
2022-10-01T10:25:34.744Z,93.75
2022-10-01T10:28:02.877Z,93.74
2022-10-01T10:30:31.465Z,93.70
2022-10-01T10:33:04.086Z,93.74
2022-10-01T10:35:32.364Z,93.52
2022-10-01T10:38:01.726Z,93.57
2022-10-01T10:40:40.659Z,93.29
2022-10-01T10:43:41.377Z,93.45
2022-10-01T10:46:09.903Z,93.21
2022-10-01T10:48:44.064Z,93.26
2022-10-01T10:51:12.081Z,93.26
2022-10-01T10:53:41.757Z,93.25
2022-10-01T10:56:20.217Z,93.30
2022-10-01T10:58:49.229Z,93.00
2022-10-01T11:01:28.319Z,92.88
2022-10-01T11:03:58.198Z,93.13
2022-10-01T11:06:26.995Z,92.87
2022-10-01T11:09:07.468Z,92.88
2022-10-01T11:11:35.447Z,92.96
2022-10-01T11:14:23.316Z,92.93
2022-10-01T11:17:01.022Z,92.82
2022-10-01T11:19:37.945Z,92.89
2022-10-01T11:22:32.271Z,92.93
2022-10-01T11:25:23.150Z,92.79
2022-10-01T11:28:14.815Z,92.72
2022-10-01T11:31:02.602Z,92.76
2022-10-01T11:33:40.775Z,92.82
2022-10-01T11:36:22.520Z,92.61
2022-10-01T11:38:50.828Z,92.42
2022-10-01T11:41:19.268Z,92.63
2022-10-01T11:43:54.924Z,92.61
2022-10-01T11:46:35.463Z,92.54
2022-10-01T11:49:33.525Z,92.69
2022-10-01T11:52:11.072Z,92.68
2022-10-01T11:54:42.197Z,92.56
2022-10-01T11:57:33.160Z,92.58
2022-10-01T12:00:11.927Z,92.17
2022-10-01T12:02:54.129Z,91.94
2022-10-01T12:05:25.788Z,92.23
2022-10-01T12:07:56.968Z,92.36
2022-10-01T12:10:30.753Z,92.52
2022-10-01T12:12:58.826Z,92.16
2022-10-01T12:15:31.312Z,92.05
2022-10-01T12:18:00.044Z,92.15
2022-10-01T12:20:57.400Z,92.03
2022-10-01T12:23:35.274Z,92.04
2022-10-01T12:26:09.292Z,92.10
2022-10-01T12:28:49.119Z,92.16
2022-10-01T12:31:24.936Z,92.11
2022-10-01T12:34:05.194Z,92.09
2022-10-01T12:36:41.237Z,92.01
2022-10-01T12:39:21.414Z,91.85
2022-10-01T12:42:09.633Z,91.76
2022-10-01T12:44:40.605Z,91.86
2022-10-01T12:47:21.917Z,91.99
2022-10-01T12:50:10.245Z,92.06
2022-10-01T12:52:44.227Z,91.95
2022-10-01T12:55:12.159Z,92.09
2022-10-01T12:57:43.078Z,92.04
2022-10-01T13:00:19.489Z,92.15
2022-10-01T13:03:06.067Z,91.99
2022-10-01T13:05:33.970Z,91.97
2022-10-01T13:08:05.075Z,91.96
2022-10-01T13:10:51.149Z,91.91
2022-10-01T13:13:35.353Z,91.95
2022-10-01T13:16:22.260Z,92.13
2022-10-01T13:19:08.960Z,92.01
2022-10-01T13:21:48.775Z,92.04
2022-10-01T13:24:27.601Z,91.98
2022-10-01T13:27:04.706Z,92.06
2022-10-01T13:29:48.190Z,92.01
2022-10-01T13:32:27.711Z,92.05
2022-10-01T13:34:56.637Z,91.95
2022-10-01T13:37:30.482Z,92.12
2022-10-01T13:39:59.418Z,91.96
2022-10-01T13:42:37.299Z,92.05
2022-10-01T13:45:06.383Z,92.16
2022-10-01T13:47:40.545Z,92.08
2022-10-01T13:50:18.824Z,91.95
2022-10-01T13:52:47.139Z,92.17
2022-10-01T13:55:27.006Z,92.04
2022-10-01T13:58:05.466Z,92.01
2022-10-01T14:00:33.804Z,91.97
2022-10-01T14:03:25.703Z,91.95
2022-10-01T14:05:56.610Z,92.06
2022-10-01T14:08:42.805Z,91.97
2022-10-01T14:11:34.218Z,91.89
2022-10-01T14:14:28.424Z,91.98
2022-10-01T14:16:57.235Z,91.89
2022-10-01T14:19:26.582Z,92.04
2022-10-01T14:21:54.606Z,91.92
2022-10-01T14:24:37.721Z,91.91
2022-10-01T14:27:11.948Z,92.04
2022-10-01T14:29:49.077Z,92.10
2022-10-01T14:32:23.151Z,92.08
2022-10-01T14:34:57.144Z,92.15
2022-10-01T14:37:25.312Z,92.23
2022-10-01T14:40:11.691Z,92.21
2022-10-01T14:42:39.721Z,92.03
2022-10-01T14:45:17.070Z,92.06
2022-10-01T14:47:49.949Z,92.03
2022-10-01T14:50:19.792Z,92.03
2022-10-01T14:52:51.224Z,91.95
2022-10-01T14:55:21.851Z,92.02
2022-10-01T14:57:51.936Z,92.11
2022-10-01T15:00:21.782Z,92.04
2022-10-01T15:02:52.278Z,92.08
2022-10-01T15:05:20.600Z,92.10
2022-10-01T15:07:48.987Z,92.10
2022-10-01T15:10:18.605Z,92.07
2022-10-01T15:12:49.742Z,91.94
2022-10-01T15:15:21.949Z,92.17
2022-10-01T15:17:50.596Z,92.10
2022-10-01T15:20:18.895Z,92.21
2022-10-01T15:22:48.995Z,92.23
2022-10-01T15:25:22.411Z,92.17
2022-10-01T15:27:50.703Z,92.16
2022-10-01T15:30:19.064Z,92.29
2022-10-01T15:32:48.002Z,92.21
2022-10-01T15:35:19.159Z,92.17
2022-10-01T15:37:50.199Z,92.25
2022-10-01T15:40:25.475Z,92.15
2022-10-01T15:43:08.950Z,92.02
2022-10-01T15:45:36.997Z,92.17
2022-10-01T15:48:05.075Z,92.04
2022-10-01T15:50:36.671Z,91.97
2022-10-01T15:53:06.454Z,91.86
2022-10-01T15:55:46.145Z,91.94
2022-10-01T15:58:17.580Z,91.94
2022-10-01T16:01:04.697Z,91.89
2022-10-01T16:03:32.900Z,91.93
2022-10-01T16:06:02.184Z,91.79
2022-10-01T16:08:39.846Z,91.84
2022-10-01T16:11:13.692Z,91.82
2022-10-01T16:13:44.947Z,91.64
2022-10-01T16:16:19.429Z,91.68
2022-10-01T16:19:13.597Z,91.96
2022-10-01T16:21:41.584Z,91.92
2022-10-01T16:24:28.701Z,91.87
2022-10-01T16:27:01.172Z,92.09
2022-10-01T16:29:29.214Z,91.94
2022-10-01T16:31:57.344Z,91.83
2022-10-01T16:34:26.738Z,92.23
2022-10-01T16:36:54.892Z,92.18
2022-10-01T16:39:23.210Z,92.24
2022-10-01T16:42:12.144Z,92.26
2022-10-01T16:44:40.211Z,91.92
2022-10-01T16:47:10.448Z,92.12
2022-10-01T16:49:38.431Z,92.01
2022-10-01T16:52:07.009Z,92.26
2022-10-01T16:54:35.284Z,92.27
2022-10-01T16:57:03.346Z,92.18
2022-10-01T16:59:33.919Z,92.41
2022-10-01T17:02:02.367Z,92.35
2022-10-01T17:04:34.024Z,92.26
2022-10-01T17:07:02.363Z,92.48
2022-10-01T17:09:30.595Z,92.41
2022-10-01T17:11:58.543Z,92.60
2022-10-01T17:14:27.976Z,92.55
2022-10-01T17:16:56.213Z,92.54
2022-10-01T17:19:25.077Z,92.28
2022-10-01T17:21:53.283Z,92.39
2022-10-01T17:24:21.356Z,92.51
2022-10-01T17:26:50.132Z,92.55
2022-10-01T17:29:18.236Z,92.75
2022-10-01T17:31:50.673Z,92.69
2022-10-01T17:34:19.816Z,92.42
2022-10-01T17:36:47.867Z,92.56
2022-10-01T17:39:15.973Z,92.59
2022-10-01T17:41:43.997Z,92.65
2022-10-01T17:44:12.196Z,92.68
2022-10-01T17:46:40.273Z,92.70
2022-10-01T17:49:09.050Z,92.50
2022-10-01T17:51:37.129Z,92.66
2022-10-01T17:54:05.509Z,92.76
2022-10-01T17:56:33.821Z,92.61
2022-10-01T17:59:05.138Z,92.49
2022-10-01T18:01:33.262Z,92.54
2022-10-01T18:04:03.869Z,92.56
2022-10-01T18:06:32.147Z,92.52
2022-10-01T18:09:00.400Z,92.56
2022-10-01T18:11:29.395Z,92.53
2022-10-01T18:13:57.787Z,92.60
2022-10-01T18:16:26.334Z,92.61
2022-10-01T18:21:46.988Z,92.57
2022-10-01T18:24:15.458Z,92.59
2022-10-01T18:26:45.832Z,92.83
2022-10-01T18:29:18.319Z,92.49
2022-10-01T18:31:46.819Z,92.81
2022-10-01T18:34:25.071Z,92.60
2022-10-01T18:37:06.589Z,92.58
2022-10-01T18:39:37.601Z,92.51
2022-10-01T18:42:19.272Z,92.55
2022-10-01T18:44:57.460Z,92.55
2022-10-01T18:47:28.531Z,92.50
2022-10-01T18:50:12.556Z,92.57
2022-10-01T18:53:00.971Z,92.29
2022-10-01T18:55:52.505Z,92.75
2022-10-01T18:58:29.354Z,92.69
2022-10-01T19:01:11.001Z,92.53
2022-10-01T19:03:39.103Z,92.65
2022-10-01T19:06:24.307Z,92.28
2022-10-01T19:08:54.981Z,92.35
2022-10-01T19:11:30.422Z,92.02
2022-10-01T19:14:01.413Z,92.05
2022-10-01T19:16:32.313Z,91.80
2022-10-01T19:19:03.400Z,91.81
2022-10-01T19:21:49.437Z,92.00
2022-10-01T19:24:17.496Z,91.94
2022-10-01T19:27:01.844Z,91.95
2022-10-01T19:29:32.899Z,91.66
2022-10-01T19:32:07.819Z,91.96
2022-10-01T19:34:41.720Z,91.75
2022-10-01T19:37:15.384Z,92.00
2022-10-01T19:39:45.272Z,91.90
2022-10-01T19:42:16.711Z,91.92
2022-10-01T19:44:55.915Z,91.83
2022-10-01T19:47:44.140Z,91.99
2022-10-01T19:50:21.274Z,91.87
2022-10-01T19:52:51.767Z,91.96
2022-10-01T19:55:21.692Z,91.97
2022-10-01T19:57:50.077Z,92.06
2022-10-01T20:00:21.645Z,91.86
2022-10-01T20:02:49.727Z,91.84
2022-10-01T20:05:29.848Z,92.09
2022-10-01T20:08:01.349Z,92.02
2022-10-01T20:10:48.070Z,92.03
2022-10-01T20:13:19.445Z,91.88
2022-10-01T20:15:48.372Z,91.97
2022-10-01T20:18:32.948Z,92.05
2022-10-01T20:21:19.689Z,92.06
2022-10-01T20:23:53.776Z,92.12
2022-10-01T20:26:40.407Z,92.01
2022-10-01T20:29:20.758Z,92.09
2022-10-01T20:31:55.860Z,92.15
2022-10-01T20:34:31.124Z,92.06
2022-10-01T20:37:11.457Z,92.17
2022-10-01T20:39:41.999Z,92.11
2022-10-01T20:42:24.235Z,92.08
2022-10-01T20:44:53.630Z,92.13
2022-10-01T20:47:44.086Z,92.12
2022-10-01T20:50:26.262Z,92.28
2022-10-01T20:53:03.864Z,92.28
2022-10-01T20:55:40.725Z,92.22
2022-10-01T20:58:15.447Z,92.22
2022-10-01T21:00:45.940Z,92.33
2022-10-01T21:03:23.574Z,92.36
2022-10-01T21:05:57.159Z,92.36
2022-10-01T21:08:28.207Z,92.44
2022-10-01T21:11:02.601Z,92.41
2022-10-01T21:13:30.727Z,92.28
2022-10-01T21:16:17.331Z,92.44
2022-10-01T21:19:04.560Z,92.44
2022-10-01T21:21:35.619Z,92.66
2022-10-01T21:24:19.061Z,92.64
2022-10-01T21:26:50.164Z,92.77
2022-10-01T21:29:19.684Z,92.65
2022-10-01T21:32:06.348Z,92.77
2022-10-01T21:34:34.307Z,92.76
2022-10-01T21:37:10.879Z,92.78
2022-10-01T21:39:52.209Z,92.67
2022-10-01T21:42:58.836Z,92.70
2022-10-01T21:45:45.775Z,92.78
2022-10-01T21:48:17.097Z,92.76
2022-10-01T21:50:48.076Z,92.73
2022-10-01T21:53:36.364Z,92.91
2022-10-01T21:56:06.559Z,93.00
2022-10-01T21:58:53.399Z,92.98
2022-10-01T22:01:27.282Z,92.99
2022-10-01T22:04:01.670Z,92.99
2022-10-01T22:07:02.204Z,93.00
2022-10-01T22:09:43.169Z,93.04
2022-10-01T22:12:12.263Z,93.10
2022-10-01T22:14:41.210Z,93.12
2022-10-01T22:17:15.868Z,93.06
2022-10-01T22:19:48.928Z,93.03
2022-10-01T22:22:30.216Z,93.11
2022-10-01T22:24:59.460Z,92.97
2022-10-01T22:27:27.764Z,93.13
2022-10-01T22:29:58.447Z,93.26
2022-10-01T22:32:29.245Z,93.42
2022-10-01T22:35:03.231Z,93.27
2022-10-01T22:37:34.152Z,93.34
2022-10-01T22:40:10.338Z,93.42
2022-10-01T22:42:42.668Z,93.51
2022-10-01T22:45:15.769Z,93.44
2022-10-01T22:47:53.886Z,93.62
2022-10-01T22:50:31.476Z,93.52
2022-10-01T22:53:09.027Z,93.51
2022-10-01T22:55:48.368Z,93.65
2022-10-01T22:58:19.462Z,93.50
2022-10-01T23:00:51.384Z,93.53
2022-10-01T23:03:28.732Z,93.66
2022-10-01T23:06:01.968Z,93.55
2022-10-01T23:08:49.935Z,93.61
2022-10-01T23:11:25.195Z,93.75
2022-10-01T23:14:02.782Z,93.69
2022-10-01T23:16:31.039Z,93.77
2022-10-01T23:18:59.119Z,93.74
2022-10-01T23:21:36.271Z,93.78
2022-10-01T23:24:07.328Z,93.75
2022-10-01T23:26:54.048Z,93.76
2022-10-01T23:29:39.723Z,93.79
2022-10-01T23:32:17.079Z,93.75
2022-10-01T23:34:52.206Z,93.78
2022-10-01T23:37:21.625Z,93.76
2022-10-01T23:40:01.728Z,93.71
2022-10-01T23:42:42.617Z,93.77
2022-10-01T23:45:22.158Z,93.75
2022-10-01T23:48:01.936Z,93.88
2022-10-01T23:50:32.002Z,93.92
2022-10-01T23:53:03.596Z,93.88
2022-10-01T23:56:00.765Z,93.87
2022-10-01T23:58:30.265Z,93.92
